Time;durP1;ratioP1;P1;durP2;ratioP2;P2;SDS_P1;SDS_P2;PMS_P1;PMS_P2;Temp;Humidity;BMP_temperature;BMP_pressure;BME280_temperature;BME280_humidity;BME280_pressure;Samples;Min_cycle;Max_cycle;Signal;HPM_P1;HPM_P2
2022/06/28 03:00:45;;;;;;;13.35;8.25;;;12.70;99.90;;;;;;6235172;22;20270;-82
2022/06/28 03:03:11;;;;;;;12.73;7.05;;;12.80;99.90;;;;;;6261413;22;20035;-85
2022/06/28 03:05:36;;;;;;;13.13;7.38;;;12.80;99.90;;;;;;6313389;22;20328;-83
2022/06/28 03:08:02;;;;;;;14.05;7.90;;;12.70;99.90;;;;;;6313580;22;20018;-82
2022/06/28 03:10:28;;;;;;;11.68;7.20;;;12.70;99.90;;;;;;6285194;22;20007;-82
2022/06/28 03:12:53;;;;;;;14.00;8.32;;;12.70;99.90;;;;;;6285910;22;20018;-82
2022/06/28 03:15:19;;;;;;;12.63;7.18;;;12.70;99.90;;;;;;6285127;22;20015;-83
2022/06/28 03:17:45;;;;;;;16.75;7.65;;;12.60;99.90;;;;;;6286201;22;20015;-84
2022/06/28 03:20:12;;;;;;;18.33;8.73;;;12.60;99.90;;;;;;6315065;22;20421;-82
2022/06/28 03:22:38;;;;;;;20.95;8.05;;;12.60;99.90;;;;;;6262193;22;20033;-84
2022/06/28 03:25:04;;;;;;;13.48;7.75;;;12.60;99.90;;;;;;6262276;22;20039;-82
2022/06/28 03:27:30;;;;;;;13.57;7.55;;;12.60;99.90;;;;;;6315526;22;20050;-83
2022/06/28 03:29:56;;;;;;;11.27;7.72;;;12.60;99.90;;;;;;6262330;22;20019;-84
2022/06/28 03:32:21;;;;;;;16.35;8.05;;;12.60;99.90;;;;;;6286987;22;20015;-84
2022/06/28 03:34:47;;;;;;;17.33;7.78;;;12.60;99.90;;;;;;6287992;22;20061;-82
2022/06/28 03:37:12;;;;;;;20.88;8.73;;;12.60;99.90;;;;;;6286702;22;20019;-83
2022/06/28 03:39:38;;;;;;;13.50;7.82;;;12.60;99.90;;;;;;6315121;22;20018;-82
2022/06/28 03:42:04;;;;;;;12.60;7.55;;;12.60;99.90;;;;;;6315421;22;20015;-84
2022/06/28 03:44:30;;;;;;;15.65;8.43;;;12.60;99.90;;;;;;6314343;22;20090;-82
2022/06/28 03:46:55;;;;;;;15.30;7.43;;;12.60;99.90;;;;;;6287902;22;20019;-82
2022/06/28 03:49:21;;;;;;;16.00;8.00;;;12.60;99.90;;;;;;6287649;22;20012;-82
2022/06/28 03:51:46;;;;;;;13.85;7.18;;;12.60;99.90;;;;;;6288218;22;20011;-84
2022/06/28 03:54:12;;;;;;;14.65;7.93;;;12.60;99.90;;;;;;6314615;22;20011;-83
2022/06/28 03:56:38;;;;;;;14.32;7.78;;;12.60;99.90;;;;;;6287123;22;20007;-83
2022/06/28 03:59:03;;;;;;;14.85;8.77;;;12.60;99.90;;;;;;6287810;22;20015;-83
2022/06/28 04:01:29;;;;;;;20.13;9.38;;;12.60;99.90;;;;;;6286792;22;20020;-83
2022/06/28 04:03:55;;;;;;;14.23;8.55;;;12.60;99.90;;;;;;6315056;22;20459;-83
2022/06/28 04:06:20;;;;;;;15.93;7.95;;;12.70;99.90;;;;;;6287869;22;20018;-84
2022/06/28 04:08:46;;;;;;;17.00;7.97;;;12.70;99.90;;;;;;6287315;22;20019;-84
2022/06/28 04:11:14;;;;;;;12.13;7.40;;;12.70;99.90;;;;;;6315391;22;20063;-83
2022/06/28 04:13:42;;;;;;;16.40;8.55;;;12.70;99.90;;;;;;6314314;22;20014;-82
2022/06/28 04:16:08;;;;;;;15.25;7.88;;;12.70;99.90;;;;;;6287646;22;20011;-84
2022/06/28 04:18:34;;;;;;;15.57;8.48;;;12.70;99.90;;;;;;6314256;22;20013;-84
2022/06/28 04:21:00;;;;;;;11.27;7.68;;;12.70;99.90;;;;;;6286387;22;20384;-84
2022/06/28 04:23:26;;;;;;;16.40;8.35;;;12.80;99.90;;;;;;6313871;22;20015;-84
2022/06/28 04:25:51;;;;;;;17.75;8.20;;;12.80;99.90;;;;;;6286886;22;20011;-84
2022/06/28 04:28:17;;;;;;;16.67;7.55;;;12.80;99.90;;;;;;6261054;22;20015;-83
2022/06/28 04:30:44;;;;;;;14.18;8.05;;;12.90;99.90;;;;;;6285910;22;20069;-84
2022/06/28 04:33:09;;;;;;;18.30;7.18;;;12.90;99.90;;;;;;6314565;22;20003;-82
2022/06/28 04:35:35;;;;;;;15.45;7.28;;;13.00;99.90;;;;;;6286913;22;20504;-86
2022/06/28 04:38:01;;;;;;;15.00;6.60;;;13.10;99.90;;;;;;6315287;22;20015;-82
2022/06/28 04:40:27;;;;;;;14.68;6.85;;;13.10;99.90;;;;;;6313946;22;20045;-83
2022/06/28 04:42:53;;;;;;;14.68;6.70;;;13.20;99.90;;;;;;6287346;22;20065;-84
2022/06/28 04:45:18;;;;;;;15.20;6.93;;;13.20;99.90;;;;;;6286906;22;20387;-83
2022/06/28 04:47:44;;;;;;;13.82;6.85;;;13.30;99.90;;;;;;6313245;22;20007;-82
2022/06/28 04:50:10;;;;;;;12.35;5.90;;;13.30;99.90;;;;;;6316242;22;20011;-84
2022/06/28 04:52:36;;;;;;;12.73;5.47;;;13.40;99.90;;;;;;6288833;22;20007;-85
2022/06/28 04:55:03;;;;;;;15.80;6.15;;;13.50;99.90;;;;;;6289926;22;20084;-83
2022/06/28 04:57:28;;;;;;;14.13;6.43;;;13.60;99.90;;;;;;6315439;22;20011;-84
2022/06/28 04:59:54;;;;;;;13.95;5.43;;;13.60;99.90;;;;;;6262847;22;20025;-83
2022/06/28 05:02:20;;;;;;;9.95;5.07;;;13.60;99.90;;;;;;6308223;22;20047;-84
2022/06/28 05:04:46;;;;;;;12.82;5.20;;;13.70;99.90;;;;;;6312369;22;20007;-85
2022/06/28 05:07:12;;;;;;;12.13;5.20;;;13.70;99.90;;;;;;6312814;22;20015;-83
2022/06/28 05:09:37;;;;;;;14.60;5.57;;;13.70;99.90;;;;;;6311328;22;20014;-85
2022/06/28 05:12:03;;;;;;;14.07;5.22;;;13.70;99.90;;;;;;6312777;22;20007;-85
2022/06/28 05:14:29;;;;;;;12.32;5.28;;;13.70;99.90;;;;;;6313758;22;20007;-83
2022/06/28 05:16:55;;;;;;;9.63;5.03;;;13.70;99.90;;;;;;6314329;22;20064;-83
2022/06/28 05:19:20;;;;;;;13.98;5.57;;;13.70;99.90;;;;;;6312310;22;20015;-85
2022/06/28 05:21:46;;;;;;;12.40;4.75;;;13.80;99.90;;;;;;6314846;22;20061;-85
2022/06/28 05:24:12;;;;;;;15.20;5.15;;;13.80;99.90;;;;;;6290986;22;20444;-83
2022/06/28 05:26:37;;;;;;;12.40;4.80;;;13.90;99.90;;;;;;6313376;22;20011;-85
2022/06/28 05:29:03;;;;;;;12.40;4.90;;;13.90;99.90;;;;;;6341541;22;20007;-84
2022/06/28 05:31:28;;;;;;;8.75;4.35;;;13.90;99.90;;;;;;6286811;22;20011;-84
2022/06/28 05:33:55;;;;;;;9.43;4.75;;;13.90;99.90;;;;;;6319703;22;20007;-82
2022/06/28 05:36:21;;;;;;;10.90;4.90;;;14.00;99.90;;;;;;6320196;22;20055;-82
2022/06/28 05:38:47;;;;;;;10.77;4.53;;;14.00;99.90;;;;;;6316053;22;20011;-84
2022/06/28 05:41:13;;;;;;;15.30;4.68;;;14.10;99.90;;;;;;6314665;22;20011;-84
2022/06/28 05:43:39;;;;;;;8.23;4.38;;;14.10;99.90;;;;;;6314501;22;20074;-84
2022/06/28 05:46:05;;;;;;;13.15;4.13;;;14.20;99.90;;;;;;6314889;22;20015;-85
2022/06/28 05:48:33;;;;;;;15.30;4.68;;;14.20;99.90;;;;;;6314253;22;20003;-83
2022/06/28 05:50:59;;;;;;;10.32;3.95;;;14.30;99.90;;;;;;6312836;22;20325;-84
2022/06/28 05:53:25;;;;;;;10.45;4.10;;;14.30;99.90;;;;;;6317326;22;20015;-83
2022/06/28 05:55:50;;;;;;;15.43;3.47;;;14.40;99.90;;;;;;6312616;22;20087;-84
2022/06/28 05:58:16;;;;;;;8.75;3.17;;;14.50;99.90;;;;;;6318826;22;20333;-86
2022/06/28 06:00:41;;;;;;;13.23;2.92;;;14.60;99.90;;;;;;6318182;22;20038;-87
2022/06/28 06:03:07;;;;;;;13.63;3.42;;;14.70;99.90;;;;;;6318936;22;20433;-89
2022/06/28 06:05:33;;;;;;;12.85;2.78;;;14.80;99.90;;;;;;6315026;22;20007;-85
2022/06/28 06:07:59;;;;;;;12.32;2.92;;;14.80;99.90;;;;;;6318665;22;20015;-86
2022/06/28 06:10:25;;;;;;;11.57;2.97;;;14.90;99.90;;;;;;6318111;22;20173;-90
2022/06/28 06:12:50;;;;;;;10.65;3.58;;;14.90;99.90;;;;;;6319072;22;20018;-88
2022/06/28 06:15:16;;;;;;;10.82;3.10;;;14.90;99.90;;;;;;6314444;22;20011;-84
2022/06/28 06:17:41;;;;;;;13.32;2.97;;;14.90;99.90;;;;;;6309099;22;20054;-85
2022/06/28 06:20:08;;;;;;;14.45;3.28;;;15.00;99.90;;;;;;6307865;22;20341;-90
2022/06/28 06:22:34;;;;;;;10.50;2.97;;;15.10;99.90;;;;;;6308288;22;20022;-86
2022/06/28 06:25:00;;;;;;;8.82;2.65;;;15.10;99.90;;;;;;6345378;22;19991;-89
2022/06/28 06:27:26;;;;;;;12.77;2.90;;;15.20;99.90;;;;;;6320932;22;20026;-88
2022/06/28 06:29:52;;;;;;;11.10;3.08;;;15.20;99.90;;;;;;6295142;22;20022;-90
2022/06/28 06:32:17;;;;;;;12.75;3.30;;;15.30;99.90;;;;;;6319508;22;20042;-85
2022/06/28 06:34:43;;;;;;;11.38;3.40;;;15.30;99.90;;;;;;6290704;22;20015;-83
2022/06/28 06:37:09;;;;;;;15.73;2.97;;;15.40;99.90;;;;;;6319957;22;20016;-85
2022/06/28 06:39:34;;;;;;;13.95;2.85;;;15.40;99.90;;;;;;6321024;22;20105;-85
2022/06/28 06:42:00;;;;;;;10.18;2.35;;;15.40;99.90;;;;;;6317787;22;20329;-85
2022/06/28 06:44:26;;;;;;;10.27;2.53;;;15.60;99.90;;;;;;6316644;22;20022;-85
2022/06/28 06:46:51;;;;;;;16.05;3.03;;;15.60;99.90;;;;;;6314936;22;20011;-87
2022/06/28 06:49:17;;;;;;;17.52;3.65;;;15.60;99.90;;;;;;6290172;22;19996;-84
2022/06/28 06:51:44;;;;;;;11.38;2.90;;;15.70;99.90;;;;;;6315979;22;20007;-84
2022/06/28 06:54:14;;;;;;;13.60;2.60;;;15.70;99.90;;;;;;6314751;22;20012;-84
2022/06/28 06:56:40;;;;;;;13.68;2.92;;;15.70;99.90;;;;;;6311183;22;20007;-86
2022/06/28 06:59:07;;;;;;;11.35;2.60;;;15.80;99.90;;;;;;6310918;22;20079;-89
2022/06/28 07:01:34;;;;;;;12.40;3.58;;;15.90;99.90;;;;;;6284732;22;20059;-83
2022/06/28 07:04:01;;;;;;;10.63;2.45;;;15.90;99.90;;;;;;6317103;22;20011;-84
2022/06/28 07:06:27;;;;;;;11.75;2.60;;;16.00;99.90;;;;;;6318095;22;20022;-85
2022/06/28 07:08:52;;;;;;;10.50;2.22;;;16.10;99.90;;;;;;6317774;22;20425;-85
2022/06/28 07:11:18;;;;;;;9.55;2.20;;;16.20;99.90;;;;;;6318349;22;20011;-84
2022/06/28 07:13:44;;;;;;;8.20;1.90;;;16.20;99.90;;;;;;6316935;22;20014;-85
2022/06/28 07:16:10;;;;;;;9.60;2.20;;;16.30;99.90;;;;;;6319535;22;20011;-88
2022/06/28 07:18:39;;;;;;;12.70;2.55;;;16.30;99.90;;;;;;6318941;22;20136;-86
2022/06/28 07:21:04;;;;;;;9.15;2.00;;;16.40;99.90;;;;;;6289209;22;20093;-86
2022/06/28 07:23:30;;;;;;;13.77;2.60;;;16.50;99.90;;;;;;6316479;22;20011;-85
2022/06/28 07:25:56;;;;;;;14.18;2.58;;;16.50;99.90;;;;;;6322525;22;20015;-85
2022/06/28 07:28:23;;;;;;;16.20;2.92;;;16.60;99.90;;;;;;6317045;22;20034;-86
2022/06/28 07:30:49;;;;;;;12.23;2.20;;;16.70;99.90;;;;;;6315937;22;20011;-86
2022/06/28 07:33:15;;;;;;;10.43;2.35;;;16.70;99.90;;;;;;6316293;22;20022;-87
2022/06/28 07:35:41;;;;;;;13.73;2.00;;;16.70;99.90;;;;;;6289737;22;20015;-87
2022/06/28 07:38:07;;;;;;;8.60;2.38;;;16.80;99.90;;;;;;6315091;22;20011;-84
2022/06/28 07:40:33;;;;;;;10.98;2.15;;;16.80;99.90;;;;;;6316870;22;20007;-85
2022/06/28 07:43:00;;;;;;;8.18;2.35;;;16.80;99.90;;;;;;6316874;22;20018;-84
2022/06/28 07:45:25;;;;;;;9.75;1.60;;;16.90;99.90;;;;;;6316712;22;20469;-85
2022/06/28 07:47:51;;;;;;;13.82;2.45;;;16.90;99.90;;;;;;6291697;22;20014;-86
2022/06/28 07:53:04;;;;;;;9.75;2.15;;;17.00;99.90;;;;;;6321337;22;20015;-88
2022/06/28 07:55:30;;;;;;;13.43;2.15;;;17.10;99.90;;;;;;6262673;22;20023;-86
2022/06/28 07:57:57;;;;;;;9.80;1.67;;;17.20;99.90;;;;;;6288860;22;20015;-87
2022/06/28 08:00:24;;;;;;;6.18;1.55;;;17.30;99.90;;;;;;6285640;22;20016;-83
2022/06/28 08:02:50;;;;;;;10.85;1.63;;;17.40;99.90;;;;;;6264152;22;20015;-87
2022/06/28 08:05:16;;;;;;;9.07;2.05;;;17.50;99.90;;;;;;6263416;22;20063;-87
2022/06/28 08:07:42;;;;;;;8.52;1.75;;;17.40;99.90;;;;;;6263164;22;20058;-84
2022/06/28 08:10:40;;;;;;;8.05;1.92;;;17.50;99.90;;;;;;6266141;22;20457;-91
2022/06/28 08:13:05;;;;;;;9.20;2.08;;;17.50;99.90;;;;;;6248361;22;20390;-78
2022/06/28 08:15:31;;;;;;;8.48;1.67;;;17.60;99.90;;;;;;6229115;22;20050;-87
2022/06/28 08:17:58;;;;;;;11.35;2.10;;;17.60;99.90;;;;;;6239895;22;20491;-89
2022/06/28 08:20:23;;;;;;;11.63;1.80;;;17.80;99.90;;;;;;6264736;22;20094;-88
2022/06/28 08:22:50;;;;;;;10.82;2.22;;;17.90;99.90;;;;;;6239271;22;20050;-89
2022/06/28 08:25:15;;;;;;;7.90;1.83;;;17.90;99.90;;;;;;6243327;22;20099;-90
2022/06/28 08:27:41;;;;;;;7.18;1.30;;;17.90;99.90;;;;;;6294317;22;20016;-88
2022/06/28 08:30:16;;;;;;;10.80;2.30;;;17.80;99.90;;;;;;6264899;22;20008;-90
2022/06/28 08:32:42;;;;;;;;;;;17.60;99.90;;;;;;6266956;22;20050;-87
2022/06/28 08:35:08;;;;;;;10.40;2.35;;;17.50;99.90;;;;;;6263172;22;19915;-88
2022/06/28 08:37:33;;;;;;;9.80;1.50;;;17.40;99.90;;;;;;6237683;22;20016;-87
2022/06/28 08:39:59;;;;;;;8.00;1.67;;;17.50;99.90;;;;;;6259057;22;20023;-88
2022/06/28 08:42:27;;;;;;;7.53;1.77;;;17.60;99.90;;;;;;6233023;22;20022;-84
2022/06/28 08:44:59;;;;;;;5.50;1.60;;;17.70;99.90;;;;;;6234414;22;20531;-88
2022/06/28 08:47:27;;;;;;;8.77;1.77;;;17.90;99.90;;;;;;6259784;22;20022;-83
2022/06/28 08:50:06;;;;;;;5.75;1.38;;;18.10;99.90;;;;;;6261839;22;20018;-86
2022/06/28 08:52:35;;;;;;;7.82;1.40;;;18.20;99.90;;;;;;6261729;22;20007;-85
2022/06/28 08:55:03;;;;;;;6.68;1.42;;;18.30;99.90;;;;;;6261015;22;20016;-88
2022/06/28 08:57:32;;;;;;;5.45;1.15;;;18.40;99.90;;;;;;6262518;22;20068;-86
2022/06/28 08:59:58;;;;;;;9.32;1.52;;;18.50;99.90;;;;;;6236481;22;20012;-85
2022/06/28 09:02:24;;;;;;;9.10;1.58;;;18.50;99.90;;;;;;6257039;22;20094;-85
2022/06/28 09:04:53;;;;;;;9.13;1.40;;;18.70;99.90;;;;;;6258607;22;20349;-86
2022/06/28 09:07:20;;;;;;;7.18;1.30;;;18.70;99.90;;;;;;6285095;22;20012;-87
2022/06/28 09:10:26;;;;;;;5.55;0.95;;;18.90;99.90;;;;;;6289408;22;20019;-91
2022/06/28 09:13:09;;;;;;;9.05;1.65;;;18.90;99.90;;;;;;6275161;22;20011;-86
2022/06/28 09:16:05;;;;;;;5.25;1.25;;;18.90;99.90;;;;;;6292379;22;20096;-91
2022/06/28 09:18:37;;;;;;;6.32;1.30;;;19.00;99.90;;;;;;6218897;22;20016;-90
2022/06/28 09:21:08;;;;;;;4.68;1.20;;;19.20;99.90;;;;;;6288839;22;20060;-85
2022/06/28 09:23:38;;;;;;;7.43;1.35;;;19.30;99.90;;;;;;6264034;22;20041;-90
2022/06/28 09:26:15;;;;;;;10.82;1.63;;;19.30;99.90;;;;;;6264890;22;20003;-91
2022/06/28 09:28:43;;;;;;;11.77;1.88;;;19.30;99.90;;;;;;6315665;22;20003;-86
2022/06/28 09:31:15;;;;;;;5.63;1.80;;;19.30;99.90;;;;;;6289161;22;20067;-87
2022/06/28 09:33:42;;;;;;;5.40;1.33;;;19.40;99.90;;;;;;6261457;22;20016;-88
2022/06/28 09:36:16;;;;;;;6.63;1.20;;;19.40;99.90;;;;;;6261620;22;20054;-88
2022/06/28 09:38:43;;;;;;;8.27;1.87;;;19.50;99.90;;;;;;6264555;22;20015;-90
2022/06/28 09:41:30;;;;;;;8.65;1.55;;;19.60;99.90;;;;;;6263957;22;20036;-90
2022/06/28 09:44:03;;;;;;;6.13;1.38;;;19.60;99.90;;;;;;6289693;22;20023;-92
2022/06/28 09:46:30;;;;;;;7.57;2.50;;;19.70;99.90;;;;;;6292228;22;20059;-87
2022/06/28 09:49:04;;;;;;;5.97;1.58;;;19.90;99.90;;;;;;6266291;22;20049;-84
2022/06/28 09:51:36;;;;;;;4.40;1.20;;;20.10;99.90;;;;;;6286939;22;20011;-84
2022/06/28 09:54:09;;;;;;;9.82;1.45;;;20.20;99.90;;;;;;6291353;22;20012;-87
2022/06/28 09:56:43;;;;;;;7.03;1.92;;;20.00;99.90;;;;;;6262636;22;20085;-86
2022/06/28 09:59:18;;;;;;;3.95;1.33;;;19.80;99.90;;;;;;6313394;22;20057;-87
2022/06/28 10:01:45;;;;;;;5.18;1.40;;;19.80;99.90;;;;;;6264984;22;20019;-86
2022/06/28 10:04:14;;;;;;;5.50;1.30;;;19.80;99.90;;;;;;6266338;22;20011;-90
2022/06/28 10:06:55;;;;;;;6.82;1.67;;;19.80;99.90;;;;;;6291450;22;20426;-92
2022/06/28 10:09:22;;;;;;;5.93;1.42;;;20.00;99.90;;;;;;6263734;22;20016;-88
2022/06/28 10:15:04;;;;;;;5.00;1.40;;;20.10;99.90;;;;;;6292310;22;20071;-90
2022/06/28 10:17:57;;;;;;;6.20;1.27;;;20.00;99.90;;;;;;6254958;22;20016;-88
2022/06/28 10:20:37;;;;;;;5.35;1.40;;;19.80;99.90;;;;;;6264982;22;20039;-85
2022/06/28 10:23:36;;;;;;;7.63;1.48;;;19.80;99.90;;;;;;6314015;22;20093;-87
2022/06/28 10:26:20;;;;;;;6.35;1.42;;;20.10;99.90;;;;;;6289798;22;20309;-88
2022/06/28 10:29:07;;;;;;;4.53;1.40;;;20.40;99.90;;;;;;6293501;22;20040;-87
2022/06/28 10:31:45;;;;;;;7.43;1.20;;;20.50;99.90;;;;;;6265030;22;20424;-88
2022/06/28 10:34:13;;;;;;;4.20;1.17;;;20.40;99.90;;;;;;6290705;22;20345;-85
2022/06/28 10:36:45;;;;;;;7.05;1.20;;;20.60;99.90;;;;;;6292799;22;20319;-87
2022/06/28 10:39:27;;;;;;;10.15;1.95;;;20.70;99.90;;;;;;6288814;22;20090;-86
2022/06/28 10:41:58;;;;;;;7.65;1.60;;;20.90;99.90;;;;;;6266733;22;20512;-88
2022/06/28 10:44:27;;;;;;;6.32;1.20;;;21.10;99.90;;;;;;6288844;22;20015;-88
2022/06/28 10:47:10;;;;;;;8.45;1.35;;;21.20;99.90;;;;;;6290409;22;20038;-90
2022/06/28 10:49:52;;;;;;;4.90;1.10;;;21.20;99.90;;;;;;6293675;22;20011;-88
2022/06/28 10:52:28;;;;;;;7.00;1.00;;;21.30;99.90;;;;;;6268261;22;20018;-90
2022/06/28 10:55:03;;;;;;;6.32;1.15;;;21.60;99.90;;;;;;6270064;22;20035;-89
2022/06/28 10:57:40;;;;;;;4.50;1.13;;;21.50;99.90;;;;;;6257246;22;20016;-88
2022/06/28 11:00:08;;;;;;;4.90;1.00;;;21.30;99.90;;;;;;6289369;22;20095;-86
2022/06/28 11:02:57;;;;;;;4.88;1.30;;;21.20;99.90;;;;;;6317763;22;20039;-87
2022/06/28 11:05:47;;;;;;;5.47;1.17;;;21.20;99.90;;;;;;6269893;22;20052;-89
2022/06/28 11:08:45;;;;;;;6.15;1.60;;;21.00;99.90;;;;;;6269942;22;20059;-88
2022/06/28 11:11:11;;;;;;;6.28;1.00;;;20.90;99.90;;;;;;6263235;22;20046;-82
2022/06/28 11:13:36;;;;;;;7.22;1.23;;;21.00;99.90;;;;;;6293525;22;20026;-89
2022/06/28 11:16:02;;;;;;;5.35;1.00;;;20.90;99.90;;;;;;6294554;22;20323;-89
2022/06/28 11:18:30;;;;;;;4.40;1.20;;;20.70;99.90;;;;;;6293476;22;20311;-85
2022/06/28 11:20:56;;;;;;;6.85;1.20;;;20.70;99.90;;;;;;6288772;22;20020;-84
2022/06/28 11:23:35;;;;;;;5.80;1.73;;;20.60;99.90;;;;;;6294320;22;20084;-87
2022/06/28 11:29:14;;;;;;;6.32;1.13;;;20.60;99.90;;;;;;6296096;22;20011;-90
2022/06/28 11:31:42;;;;;;;4.95;1.50;;;20.40;99.90;;;;;;6209637;22;20073;-82
2022/06/28 11:34:21;;;;;;;5.00;0.93;;;20.30;99.90;;;;;;6284012;22;20020;-89
2022/06/28 11:36:47;;;;;;;4.82;1.00;;;20.30;99.90;;;;;;6289447;22;20338;-87
2022/06/28 11:39:23;;;;;;;5.97;1.20;;;20.50;99.90;;;;;;6289677;22;20075;-86
2022/06/28 11:41:53;;;;;;;4.75;1.10;;;20.70;99.90;;;;;;6260095;22;20047;-87
2022/06/28 11:44:32;;;;;;;4.88;1.20;;;21.10;99.90;;;;;;6286584;22;20342;-87
2022/06/28 11:46:59;;;;;;;4.75;1.25;;;21.20;99.90;;;;;;6312244;22;20084;-91
2022/06/28 11:49:32;;;;;;;4.28;1.20;;;21.30;99.90;;;;;;6288645;22;20014;-88
2022/06/28 11:51:58;;;;;;;3.92;1.00;;;21.20;99.90;;;;;;6288038;22;20079;-86
2022/06/28 11:54:24;;;;;;;7.13;1.30;;;21.10;99.90;;;;;;6283724;22;20533;-86
2022/06/28 11:56:51;;;;;;;3.92;0.95;;;21.20;99.90;;;;;;6260316;22;20016;-85
2022/06/28 11:59:17;;;;;;;5.25;0.98;;;21.20;99.90;;;;;;6284906;22;20020;-86
2022/06/28 12:01:58;;;;;;;4.57;1.20;;;21.20;99.90;;;;;;6259198;22;20016;-90
2022/06/28 12:08:19;;;;;;;;;;;;;;;;;;;;;
2022/06/28 12:10:57;;;;;;;3.67;1.20;;;21.20;99.90;;;;;;6290512;22;20016;-88
2022/06/28 12:13:23;;;;;;;3.70;0.80;;;21.30;99.90;;;;;;6272491;22;20015;-90
2022/06/28 12:15:48;;;;;;;4.88;1.10;;;21.50;99.90;;;;;;6287485;22;20058;-84
2022/06/28 12:18:14;;;;;;;5.32;1.08;;;21.80;99.90;;;;;;6264113;22;20012;-85
2022/06/28 12:21:12;;;;;;;4.97;1.13;;;21.90;99.80;;;;;;6287480;22;20149;-82
2022/06/28 12:24:07;;;;;;;4.65;1.17;;;21.90;95.70;;;;;;6293580;22;20007;-81
2022/06/28 12:26:45;;;;;;;4.87;1.03;;;22.00;94.90;;;;;;6294456;22;20031;-87
2022/06/28 12:29:12;;;;;;;5.88;1.15;;;21.80;92.60;;;;;;6291558;22;19991;-85
2022/06/28 12:31:40;;;;;;;4.80;1.10;;;21.80;96.00;;;;;;6292349;22;20019;-83
2022/06/28 12:34:07;;;;;;;4.93;0.80;;;21.90;96.50;;;;;;6287710;22;20011;-83
2022/06/28 12:36:34;;;;;;;5.47;1.40;;;22.00;95.50;;;;;;6258289;22;20008;-84
2022/06/28 12:39:00;;;;;;;4.05;1.30;;;22.10;96.90;;;;;;6285997;22;20043;-85
2022/06/28 12:41:26;;;;;;;2.72;0.90;;;22.30;97.50;;;;;;6259411;22;20015;-85
2022/06/28 12:43:51;;;;;;;6.57;1.00;;;22.40;96.90;;;;;;6286899;22;20075;-85
2022/06/28 12:46:17;;;;;;;4.97;1.35;;;22.50;96.30;;;;;;6282873;22;20349;-83
2022/06/28 12:48:43;;;;;;;3.03;0.70;;;22.20;93.60;;;;;;6283897;22;20011;-84
2022/06/28 12:51:08;;;;;;;5.00;1.45;;;22.20;95.10;;;;;;6289610;22;20018;-85
2022/06/28 12:53:37;;;;;;;4.15;1.08;;;22.30;94.60;;;;;;6283077;22;20004;-85
2022/06/28 12:56:03;;;;;;;3.83;1.10;;;22.50;95.40;;;;;;6285537;22;20446;-86
2022/06/28 12:58:29;;;;;;;4.90;1.40;;;22.80;95.10;;;;;;6284581;22;20015;-82
2022/06/28 13:00:54;;;;;;;7.05;1.23;;;22.90;92.50;;;;;;6286391;22;20019;-80
2022/06/28 13:03:20;;;;;;;4.43;1.23;;;23.10;92.60;;;;;;6257962;22;20015;-83
2022/06/28 13:05:47;;;;;;;4.53;1.30;;;22.90;88.80;;;;;;6257137;22;20090;-81
2022/06/28 13:08:13;;;;;;;2.60;0.80;;;22.70;89.60;;;;;;6285280;22;20372;-85
2022/06/28 13:10:38;;;;;;;4.05;1.02;;;22.70;90.50;;;;;;6256119;22;20008;-81
2022/06/28 13:13:07;;;;;;;4.82;1.40;;;22.70;90.00;;;;;;6284498;22;20074;-88
2022/06/28 13:15:36;;;;;;;5.70;1.33;;;22.60;85.50;;;;;;6287815;22;20129;-89
2022/06/28 13:18:04;;;;;;;3.25;1.00;;;22.70;88.00;;;;;;6257673;22;20038;-87
2022/06/28 13:20:30;;;;;;;5.82;1.35;;;22.70;90.50;;;;;;6231289;22;20012;-87
2022/06/28 13:22:56;;;;;;;3.63;0.88;;;22.80;91.80;;;;;;6283924;22;20016;-87
2022/06/28 13:25:21;;;;;;;5.38;1.30;;;22.90;91.00;;;;;;6258450;22;20039;-86
2022/06/28 13:27:47;;;;;;;4.00;0.98;;;23.00;90.90;;;;;;6259435;22;20015;-87
2022/06/28 13:30:13;;;;;;;4.18;0.90;;;23.00;88.10;;;;;;6256738;22;20019;-85
2022/06/28 13:32:39;;;;;;;5.35;0.93;;;23.10;91.60;;;;;;6284585;22;20008;-86
2022/06/28 13:35:05;;;;;;;5.60;1.35;;;23.00;88.50;;;;;;6285146;22;20111;-87
2022/06/28 13:37:31;;;;;;;7.18;1.20;;;23.10;88.70;;;;;;6232154;22;20011;-87
2022/06/28 13:40:10;;;;;;;5.25;1.08;;;23.10;91.00;;;;;;6257293;22;20061;-88
2022/06/28 13:42:40;;;;;;;5.70;1.08;;;23.20;90.50;;;;;;6233865;22;20019;-89
2022/06/28 13:45:07;;;;;;;7.32;0.98;;;22.90;87.40;;;;;;6258678;22;20171;-89
2022/06/28 13:47:34;;;;;;;5.35;1.52;;;22.70;88.90;;;;;;6285289;22;20015;-85
2022/06/28 13:50:16;;;;;;;7.43;1.55;;;22.70;92.00;;;;;;6232366;22;20015;-87
2022/06/28 13:52:45;;;;;;;7.43;1.05;;;22.80;92.10;;;;;;6284154;22;20390;-86
2022/06/28 13:55:14;;;;;;;5.60;1.15;;;22.90;91.20;;;;;;6261562;22;20043;-89
2022/06/28 13:57:41;;;;;;;3.72;0.90;;;23.00;90.10;;;;;;6265420;22;20023;-89
2022/06/28 14:00:10;;;;;;;7.80;1.48;;;23.10;89.90;;;;;;6239642;22;20059;-90
2022/06/28 14:02:37;;;;;;;7.10;1.20;;;23.30;87.90;;;;;;6232383;22;20019;-88
2022/06/28 14:05:05;;;;;;;6.22;1.40;;;23.40;87.20;;;;;;6287403;22;20018;-89
2022/06/28 14:07:43;;;;;;;4.53;1.40;;;23.40;87.10;;;;;;6281904;22;20446;-88
2022/06/28 14:10:13;;;;;;;5.18;1.38;;;23.20;89.00;;;;;;6264562;22;20011;-89
2022/06/28 14:12:39;;;;;;;4.97;1.05;;;23.30;88.10;;;;;;6290267;22;20441;-88
2022/06/28 14:15:25;;;;;;;7.50;1.60;;;23.30;87.40;;;;;;6292246;22;20095;-90
2022/06/28 14:17:51;;;;;;;6.43;1.05;;;23.40;90.60;;;;;;6216334;22;20416;-90
2022/06/28 14:20:16;;;;;;;6.47;1.30;;;23.20;91.00;;;;;;6290618;22;20015;-87
2022/06/28 14:22:42;;;;;;;6.93;1.27;;;23.30;90.70;;;;;;6291980;22;20015;-91
2022/06/28 14:25:08;;;;;;;4.47;1.40;;;23.40;92.20;;;;;;6266358;22;20090;-89
2022/06/28 14:27:49;;;;;;;6.15;1.10;;;23.50;91.90;;;;;;6290253;22;20091;-89
2022/06/28 14:30:16;;;;;;;5.35;1.30;;;23.50;88.80;;;;;;6290387;22;20012;-87
2022/06/28 14:32:42;;;;;;;7.25;1.50;;;23.20;91.90;;;;;;6316232;22;20031;-90
2022/06/28 14:35:08;;;;;;;4.28;1.33;;;22.90;91.00;;;;;;6264596;22;20016;-89
2022/06/28 14:37:34;;;;;;;5.75;1.70;;;22.50;92.60;;;;;;6292072;22;20015;-88
2022/06/28 14:39:59;;;;;;;5.63;1.42;;;22.40;93.50;;;;;;6293066;22;20019;-91
2022/06/28 14:42:27;;;;;;;8.98;1.63;;;22.30;94.70;;;;;;6264826;22;20023;-88
2022/06/28 14:44:52;;;;;;;6.18;1.50;;;22.30;96.30;;;;;;6289879;22;20016;-89
2022/06/28 14:47:29;;;;;;;5.90;1.33;;;22.10;96.40;;;;;;6291541;22;20018;-91
2022/06/28 14:50:09;;;;;;;5.90;1.38;;;22.20;97.20;;;;;;6267568;22;20438;-89
2022/06/28 14:52:36;;;;;;;6.45;1.30;;;22.50;98.50;;;;;;6289611;22;20003;-89
2022/06/28 14:55:03;;;;;;;6.30;1.30;;;22.80;99.00;;;;;;6264365;22;20016;-90
2022/06/28 14:57:29;;;;;;;8.38;1.20;;;23.10;96.40;;;;;;6288777;22;20018;-85
2022/06/28 14:59:55;;;;;;;6.55;1.77;;;23.10;95.50;;;;;;6285351;22;20016;-89
2022/06/28 15:02:21;;;;;;;6.57;1.30;;;23.20;94.60;;;;;;6285922;22;20012;-86
2022/06/28 15:04:46;;;;;;;10.60;1.50;;;23.20;92.90;;;;;;6286285;22;20027;-87
2022/06/28 15:07:12;;;;;;;10.48;1.90;;;23.30;93.80;;;;;;6286918;22;20015;-86
2022/06/28 15:09:38;;;;;;;6.57;1.60;;;23.30;95.30;;;;;;6288676;22;20012;-87
2022/06/28 15:12:05;;;;;;;4.40;1.25;;;23.50;94.70;;;;;;6288726;22;20023;-91
2022/06/28 15:14:31;;;;;;;8.02;1.75;;;23.20;93.60;;;;;;6241356;22;20015;-89
2022/06/28 15:16:57;;;;;;;9.45;1.60;;;23.20;95.00;;;;;;6238766;22;20016;-90
2022/06/28 15:19:26;;;;;;;5.65;1.40;;;23.10;95.60;;;;;;6290658;22;20011;-90
2022/06/28 15:33:00;;;;;;;4.75;1.20;;;23.20;93.40;;;;;;6235005;23;20019;-89
2022/06/28 15:35:26;;;;;;;4.43;1.13;;;23.30;94.40;;;;;;6235461;23;20047;-86
2022/06/28 15:37:55;;;;;;;11.02;2.33;;;23.40;93.30;;;;;;6208057;23;20027;-85
2022/06/28 15:40:21;;;;;;;7.38;2.00;;;23.40;91.60;;;;;;6235496;22;20099;-88
2022/06/28 15:42:47;;;;;;;5.13;1.17;;;23.30;94.10;;;;;;6208598;23;20012;-89
2022/06/28 15:45:13;;;;;;;7.05;1.27;;;23.40;95.40;;;;;;6234049;23;20019;-89
2022/06/28 15:47:39;;;;;;;6.35;1.52;;;23.50;95.50;;;;;;6210382;23;20012;-88
2022/06/28 15:50:05;;;;;;;4.50;1.30;;;23.40;94.30;;;;;;6235625;23;20012;-89
2022/06/28 15:52:31;;;;;;;5.93;1.73;;;23.10;93.60;;;;;;6211508;23;20016;-90
2022/06/28 15:54:57;;;;;;;7.90;1.30;;;22.90;95.20;;;;;;6212243;23;20056;-89
2022/06/28 15:57:22;;;;;;;6.22;1.50;;;22.80;97.40;;;;;;6261859;23;20008;-88
2022/06/28 15:59:48;;;;;;;9.43;1.65;;;22.50;97.10;;;;;;6235051;23;20513;-85
2022/06/28 16:02:14;;;;;;;7.75;1.75;;;22.40;97.20;;;;;;6208319;23;20004;-89
2022/06/28 16:04:39;;;;;;;5.50;1.52;;;22.50;97.60;;;;;;6235585;23;20012;-91
2022/06/28 16:07:05;;;;;;;4.95;1.38;;;22.70;97.50;;;;;;6211375;23;20022;-89
2022/06/28 16:09:31;;;;;;;9.05;1.60;;;22.60;98.10;;;;;;6209658;23;20087;-86
2022/06/28 16:13:00;;;;;;;4.18;1.25;;;22.70;98.70;;;;;;6209596;23;20019;-85
2022/06/28 16:14:52;;;;;;;4.45;1.77;;;22.70;99.30;;;;;;6217380;23;20090;-87
2022/06/28 16:17:18;;;;;;;6.38;1.50;;;22.80;99.90;;;;;;6226376;23;20493;-87